SBGL/GIG METAR and TAF weather

Enter ICAO airport designator
Station Type Date Time Source
SBGL METAR 2018/12/19 09:00 UTC NOAA

SBGL 190900Z 25007KT 9999 SCT017 BKN030 27/24 Q1014


Station Type Date Time Source
SBGL Decoded METAR 2018/12/19 09:00 UTC NOAA

Galeao, Brazil (SBGL) 22-49S 043-15W 42M
Dec 19, 2018 - 04:00 AM EST / 2018.12.19 0900 UTC
Wind: from the WSW (250 degrees) at 8 MPH (7 KT):0
Visibility: greater than 7 mile(s):0
Sky conditions: mostly cloudy
Temperature: 80 F (27 C)
Dew Point: 75 F (24 C)
Relative Humidity: 83%
Pressure (altimeter): 29.94 in. Hg (1014 hPa)
ob: SBGL 190900Z 25007KT 9999 SCT017 BKN030 27/24 Q1014
cycle: 9

Station Type Date Time Source
SBGL TAF 2018/12/19 12:36 UTC NOAA

TAF SBGL 190830Z 1912/2018 29003KT CAVOK TX33/1917Z TN26/2008Z
BECMG 1914/1916 22010KT FEW025
BECMG 1921/1923 17007KT SCT020
BECMG 2000/2002 00000K T CAVOK
BECMG 2006/2008 05005KT
BECMG 2010/2012 12010KT
BECMG 2014/201 6 13015KT
RMK PGY


Example: see airport list